Latest Weather Observations for Warracknabeal Airport

IDV60801

Issued at 12:42 pm EST Wednesday 21 April 2021 (issued every 10 minutes, with the page automatically refreshed every 10 minutes)

About weather observations | Map of weather stations | Latest weather observations for VIC | Other Formats
Station Details ID: 078018 Name: WARRACKNABEAL AIRPORT Lat: -36.32 Lon: 142.42 Height: 118.3 m
Data from the previous 72 hours. | See also: Recent months at Warracknabeal Airport
Date/Time
EST
Temp
°C
App
Temp
°C
Dew
Point
°C
Rel
Hum
%
Delta-T
°C
Wind Press
QNH
hPa
Press
MSL
hPa
Rain since
9am
mm
Dir  Spd
km/h
Gust
km/h
Spd
kts
Gust
kts
21/12:30pm 13.8 8.7 0.5 40 5.6 W 17 24 9 13 1018.5 1018.4 0.0
21/12:00pm 13.8 10.0 1.5 43 5.3 WNW 11 20 6 11 1018.9 1018.8 0.0
21/11:30am 13.3 9.5 1.9 46 5.0 W 11 19 6 10 1019.5 1019.4 0.0
21/11:00am 11.9 8.2 2.4 52 4.1 WSW 11 17 6 9 1019.9 1019.8 0.0
21/10:30am 12.1 8.2 3.3 55 3.9 WSW 13 17 7 9 1019.9 1019.8 0.0
21/10:00am 11.1 7.0 4.1 62 3.1 WSW 15 20 8 11 1020.2 1020.1 0.0
21/09:30am 9.5 6.7 5.3 75 1.9 SSW 9 13 5 7 1020.5 1020.4 0.0
21/09:00am 7.1 3.9 5.3 88 0.8 SSW 11 13 6 7 1020.4 1020.3 2.8
21/08:30am 5.0 2.0 4.0 93 0.4 SSW 9 13 5 7 1020.2 1020.1 2.8
21/08:00am 3.2 0.0 2.8 97 0.2 SSW 9 11 5 6 1019.6 1019.5 2.8
21/07:30am 0.8 -2.3 0.2 96 0.2 SSW 6 7 3 4 1019.3 1019.2 2.8
21/07:00am 1.1 -2.5 0.5 96 0.2 SSW 9 11 5 6 1019.1 1019.0 2.8
21/06:30am 1.5 -2.4 0.9 96 0.2 SSW 11 13 6 7 1019.0 1018.9 2.8
21/06:00am 2.1 -1.8 1.2 94 0.3 SSW 11 13 6 7 1019.1 1019.0 2.8
21/05:30am 2.5 -2.1 1.8 95 0.3 SSW 15 17 8 9 1018.9 1018.8 2.8
21/05:00am 2.0 -2.2 1.4 96 0.2 WSW 13 15 7 8 1018.7 1018.6 2.6
21/04:30am 1.1 -2.9 0.5 96 0.2 WSW 11 13 6 7 1019.0 1018.9 2.6
21/04:00am 1.4 -2.9 0.8 96 0.2 WSW 13 13 7 7 1018.8 1018.7 2.6
21/03:30am 1.7 -1.8 1.0 95 0.3 WSW 9 11 5 6 1018.9 1018.8 2.6
21/03:00am 2.4 -1.5 1.4 93 0.4 WSW 11 13 6 7 1019.0 1018.9 2.6
21/02:30am 2.4 -1.0 2.0 97 0.2 WSW 9 11 5 6 1019.0 1018.9 2.6
21/02:00am 1.7 -1.5 0.5 92 0.4 WSW 7 11 4 6 1019.1 1019.0 2.6
21/01:30am 2.4 -0.7 1.5 94 0.3 WSW 7 11 4 6 1019.2 1019.1 2.6
21/01:00am 2.9 -0.2 1.6 91 0.5 WSW 7 9 4 5 1019.0 1018.9 2.6
21/12:30am 3.6 -0.9 2.1 90 0.6 SW 15 17 8 9 1019.0 1018.9 2.6
21/12:00am 3.8 -0.7 2.0 88 0.7 SSW 15 17 8 9 1019.0 1018.9 2.6
 
Date/Time
EST
Temp
°C
App
Temp
°C
Dew
Point
°C
Rel
Hum
%
Delta-T
°C
Wind Press
QNH
hPa
Press
MSL
hPa
Rain since
9am
mm
Dir  Spd
km/h
Gust
km/h
Spd
kts
Gust
kts
20/11:30pm 3.9 -0.2 2.1 88 0.7 SSW 13 15 7 8 1019.1 1019.0 2.6
20/11:00pm 4.6 1.3 2.3 85 0.9 SSW 9 13 5 7 1019.0 1018.9 2.6
20/10:30pm 5.3 1.6 2.3 81 1.2 SSW 11 13 6 7 1018.9 1018.8 2.6
20/10:00pm 5.5 1.5 2.7 82 1.2 SSW 13 15 7 8 1018.6 1018.5 2.6
20/09:30pm 5.9 2.3 2.9 81 1.2 SSW 11 13 6 7 1018.4 1018.3 2.6
20/09:00pm 5.9 1.9 2.9 81 1.2 SSW 13 17 7 9 1017.9 1017.8 2.6
20/08:30pm 7.4 3.1 3.3 75 1.7 SSW 15 17 8 9 1017.4 1017.3 2.6
20/08:00pm 8.1 3.5 3.8 74 1.9 SSW 17 22 9 12 1017.2 1017.1 2.6
20/07:30pm 8.3 4.1 3.9 74 1.9 SW 15 19 8 10 1016.7 1016.7 2.6
20/07:00pm 9.3 5.2 4.3 71 2.2 SSW 15 19 8 10 1016.4 1016.4 2.6
20/06:30pm 10.0 5.1 4.0 66 2.7 SSW 19 22 10 12 1015.8 1015.7 2.6
20/06:00pm 10.8 6.4 4.9 67 2.7 SSW 17 24 9 13 1015.3 1015.2 2.6
20/05:30pm 12.2 5.7 4.7 60 3.4 SW 28 37 15 20 1014.7 1014.6 2.6
20/05:00pm 13.0 6.2 5.2 59 3.6 SSW 30 41 16 22 1014.3 1014.2 2.6
20/04:30pm 12.9 5.6 5.6 61 3.4 SSW 33 43 18 23 1014.0 1013.9 2.6
20/04:00pm 13.2 5.8 6.8 65 3.1 SW 35 46 19 25 1013.5 1013.4 2.6
20/03:37pm 13.9 6.2 7.2 64 3.3 SW 37 56 20 30 1013.3 1013.2 2.6
20/03:30pm 14.0 6.1 6.4 60 3.7 SW 37 48 20 26 1013.2 1013.1 2.6
20/03:06pm 14.3 6.9 6.6 60 3.7 SW 35 56 19 30 1012.9 1012.8 2.6
20/03:00pm 15.3 8.6 7.3 59 4.0 SW 32 48 17 26 1012.7 1012.6 2.6
20/02:30pm 14.5 7.6 7.3 62 3.6 SSW 33 46 18 25 1012.6 1012.5 2.6
20/02:00pm 14.0 8.5 10.6 80 1.8 SSW 30 37 16 20 1012.3 1012.2 2.6
20/01:30pm 12.7 8.3 10.4 86 1.2 SW 24 32 13 17 1012.3 1012.2 2.6
20/01:10pm 12.0 6.4 10.2 89 0.9 WSW 30 50 16 27 1012.6 1012.5 2.6
20/01:00pm 12.5 8.2 10.9 90 0.8 WSW 24 35 13 19 1012.5 1012.4 2.6
20/12:30pm 12.3 10.0 11.7 96 0.3 W 15 20 8 11 1012.5 1012.4 2.6
20/12:00pm 12.5 9.9 11.9 96 0.3 WSW 17 20 9 11 1012.8 1012.7 1.4
20/11:30am 12.7 9.2 12.1 96 0.3 W 22 30 12 16 1012.9 1012.8 0.4
20/11:00am 13.4 7.6 10.8 84 1.4 WSW 32 46 17 25 1012.7 1012.6 0.0
20/10:41am 15.4 9.1 9.1 66 3.2 W 32 50 17 27 1012.3 1012.2 0.0
20/10:38am 17.4 11.4 7.2 51 5.1 WNW 28 46 15 25 1012.0 1011.9 0.0
20/10:30am 17.6 11.7 7.4 51 5.2 WNW 28 41 15 22 1012.0 1011.9 0.0
20/10:00am 18.6 11.8 6.8 46 5.9 WNW 32 43 17 23 1011.8 1011.7 0.0
20/09:30am 17.3 12.0 6.8 50 5.2 NW 24 37 13 20 1012.1 1012.0 0.0
20/09:00am 15.7 11.1 6.4 54 4.6 NW 20 30 11 16 1012.3 1012.2 0.0
20/08:30am 13.6 9.5 6.2 61 3.6 NW 17 24 9 13 1012.5 1012.4 0.0
20/08:00am 13.0 8.9 6.4 64 3.2 NW 17 24 9 13 1012.4 1012.3 0.0
20/07:30am 11.1 7.0 6.0 71 2.4 NW 17 22 9 12 1012.1 1012.0 0.0
20/07:00am 11.5 7.0 6.2 70 2.5 NNW 19 24 10 13 1011.9 1011.8 0.0
20/06:30am 11.7 7.3 6.4 70 2.5 NNW 19 22 10 12 1012.0 1011.9 0.0
20/06:00am 11.9 7.8 6.4 69 2.6 NNW 17 22 9 12 1012.2 1012.1 0.0
20/05:30am 11.2 7.1 6.1 71 2.4 NNW 17 20 9 11 1012.2 1012.1 0.0
20/05:00am 10.8 7.1 6.2 73 2.2 NW 15 19 8 10 1012.5 1012.4 0.0
20/04:30am 10.7 7.0 6.1 73 2.2 NW 15 20 8 11 1012.6 1012.5 0.0
20/04:00am 10.3 6.5 5.9 74 2.0 NW 15 17 8 9 1012.4 1012.3 0.0
20/03:30am 10.2 7.1 5.6 73 2.1 NW 11 15 6 8 1012.7 1012.6 0.0
20/03:00am 11.2 8.1 5.7 69 2.6 NW 11 17 6 9 1012.9 1012.8 0.0
20/02:30am 11.9 8.1 5.8 66 2.9 NW 15 17 8 9 1013.2 1013.1 0.0
20/02:00am 13.1 9.4 6.2 63 3.3 NNW 15 20 8 11 1013.4 1013.3 0.0
20/01:30am 12.9 9.4 5.6 61 3.4 NNW 13 15 7 8 1013.7 1013.6 0.0
20/01:00am 13.2 10.5 5.6 60 3.6 NNW 9 11 5 6 1013.8 1013.7 0.0
20/12:30am 13.2 10.2 6.1 62 3.4 NNW 11 13 6 7 1013.9 1013.8 0.0
20/12:00am 14.4 12.2 6.0 57 4.0 NNW 7 11 4 6 1014.1 1014.0 0.0
 
Date/Time
EST
Temp
°C
App
Temp
°C
Dew
Point
°C
Rel
Hum
%
Delta-T
°C
Wind Press
QNH
hPa
Press
MSL
hPa
Rain since
9am
mm
Dir  Spd
km/h
Gust
km/h
Spd
kts
Gust
kts
19/11:30pm 14.6 12.0 5.9 56 4.2 NNW 9 11 5 6 1014.4 1014.3 0.0
19/11:00pm 15.5 12.9 6.2 54 4.5 NNW 9 13 5 7 1014.8 1014.7 0.0
19/10:30pm 15.6 12.6 6.1 53 4.6 NNW 11 13 6 7 1014.9 1014.8 0.0
19/10:00pm 15.4 12.0 5.9 53 4.6 NNW 13 15 7 8 1015.0 1014.9 0.0
19/09:30pm 15.6 12.6 5.8 52 4.7 NNW 11 15 6 8 1015.0 1014.9 0.0
19/09:00pm 15.8 13.1 5.7 51 4.9 NNW 9 13 5 7 1015.1 1015.0 0.0
19/08:30pm 16.5 13.1 5.8 49 5.2 NNW 13 15 7 8 1015.1 1015.0 0.0
19/08:00pm 16.5 13.5 5.8 49 5.2 NNW 11 13 6 7 1015.1 1015.0 0.0
19/07:30pm 17.2 13.8 5.8 47 5.6 NNW 13 17 7 9 1015.1 1015.0 0.0
19/07:00pm 17.3 13.9 5.9 47 5.6 NNW 13 15 7 8 1015.1 1015.0 0.0
19/06:30pm 17.7 13.9 5.9 46 5.8 NNW 15 19 8 10 1014.9 1014.8 0.0
19/06:00pm 18.0 14.2 5.9 45 6.0 NW 15 19 8 10 1014.7 1014.6 0.0
19/05:30pm 18.4 13.9 5.9 44 6.2 NW 19 24 10 13 1014.7 1014.6 0.0
19/05:00pm 18.7 14.2 5.9 43 6.3 NW 19 24 10 13 1014.9 1014.8 0.0
19/04:30pm 19.0 14.4 5.8 42 6.5 NW 19 28 10 15 1014.9 1014.8 0.0
19/04:00pm 19.0 14.3 6.2 43 6.4 NW 20 28 11 15 1015.0 1014.9 0.0
19/03:30pm 18.8 13.8 6.3 44 6.2 NW 22 32 12 17 1015.2 1015.1 0.0
19/03:00pm 19.2 14.5 6.0 42 6.6 NW 20 35 11 19 1015.3 1015.2 0.0
19/02:30pm 18.9 14.0 6.7 45 6.1 WNW 22 32 12 17 1015.4 1015.3 0.0
19/02:00pm 18.9 14.5 7.4 47 5.9 NW 20 30 11 16 1015.8 1015.7 0.0
19/01:30pm 18.9 14.3 8.3 50 5.5 NW 22 30 12 16 1016.2 1016.1 0.0
19/01:00pm 18.4 14.2 8.1 51 5.3 WNW 20 33 11 18 1016.6 1016.6 0.0
19/12:30pm 17.9 13.7 8.2 53 5.0 NW 20 28 11 15 1017.2 1017.1 0.0
19/12:00pm 17.5 13.3 8.4 55 4.7 NW 20 37 11 20 1017.7 1017.6 0.0
19/11:30am 17.3 12.6 9.2 59 4.2 WNW 24 35 13 19 1018.2 1018.1 0.0
19/11:00am 17.2 13.5 9.4 60 4.1 NW 19 28 10 15 1018.5 1018.4 0.0
19/10:30am 16.6 13.7 10.9 69 3.1 WNW 17 24 9 13 1018.9 1018.8 0.0
19/10:00am 15.9 13.4 11.1 73 2.6 WNW 15 20 8 11 1019.2 1019.1 0.0
19/09:30am 15.3 13.1 10.9 75 2.4 NW 13 19 7 10 1019.4 1019.3 0.0
19/09:00am 14.5 12.3 10.7 78 2.0 W 13 17 7 9 1019.6 1019.5 0.0
19/08:30am 14.1 12.3 10.7 80 1.8 W 11 15 6 8 1019.5 1019.4 0.0
19/08:00am 13.6 11.7 10.6 82 1.6 W 11 13 6 7 1019.2 1019.1 0.0
19/07:30am 13.1 11.6 10.5 84 1.4 WSW 9 13 5 7 1019.0 1018.9 0.0
19/07:00am 13.0 11.5 10.4 84 1.4 WSW 9 9 5 5 1019.0 1018.9 0.0
19/06:30am 13.1 12.0 10.5 84 1.4 WSW 7 9 4 5 1018.9 1018.8 0.0
19/06:00am 13.2 11.7 10.6 84 1.4 WSW 9 11 5 6 1018.7 1018.6 0.0
19/05:30am 13.0 11.9 10.5 85 1.3 WSW 7 9 4 5 1018.6 1018.5 0.0
19/05:00am 13.0 12.0 10.4 84 1.4 WSW 6 9 3 5 1018.7 1018.6 0.0
19/04:30am 13.1 12.0 10.6 85 1.3 WSW 7 9 4 5 1018.7 1018.6 0.0
19/04:00am 13.4 12.6 10.9 85 1.3 WSW 6 6 3 3 1018.8 1018.7 0.0
19/03:30am 13.4 12.5 10.6 83 1.5 WSW 6 7 3 4 1019.1 1019.0 0.0
19/03:00am 13.5 12.0 10.7 83 1.5 WSW 9 11 5 6 1019.3 1019.2 0.0
19/02:30am 13.5 12.0 10.7 83 1.5 WSW 9 13 5 7 1019.7 1019.6 0.0
19/02:00am 13.4 11.9 10.6 83 1.5 WSW 9 13 5 7 1020.0 1019.9 0.0
19/01:30am 13.2 11.6 10.2 82 1.6 WSW 9 11 5 6 1020.1 1020.0 0.0
19/01:00am 13.0 11.3 10.0 82 1.5 WSW 9 11 5 6 1020.3 1020.2 0.0
19/12:30am 12.8 11.1 9.8 82 1.5 WSW 9 11 5 6 1020.5 1020.4 0.0
19/12:00am 12.0 10.2 9.6 85 1.2 WSW 9 11 5 6 1020.7 1020.6 0.0
 
Date/Time
EST
Temp
°C
App
Temp
°C
Dew
Point
°C
Rel
Hum
%
Delta-T
°C
Wind Press
QNH
hPa
Press
MSL
hPa
Rain since
9am
mm
Dir  Spd
km/h
Gust
km/h
Spd
kts
Gust
kts
18/11:30pm 10.8 8.9 9.1 89 0.9 WSW 9 11 5 6 1020.9 1020.8 0.0
18/11:00pm 11.4 9.5 9.0 85 1.2 WSW 9 13 5 7 1020.9 1020.8 0.0
18/10:30pm 12.2 10.0 9.4 83 1.4 WSW 11 13 6 7 1021.0 1020.9 0.0
18/10:00pm 12.8 10.9 8.9 77 2.0 WSW 9 11 5 6 1021.1 1021.0 0.0
18/09:30pm 14.2 11.3 9.6 74 2.4 WSW 15 17 8 9 1021.1 1021.0 0.0
18/09:00pm 15.7 12.8 9.8 68 3.1 WSW 15 20 8 11 1020.9 1020.8 0.0
18/08:30pm 16.6 12.9 9.5 63 3.7 SW 19 22 10 12 1021.1 1021.0 0.0
18/08:00pm 16.9 14.2 9.1 60 4.0 SW 13 17 7 9 1021.2 1021.1 0.0
18/07:30pm 16.4 13.8 6.2 51 5.0 WSW 9 11 5 6 1021.2 1021.1 0.0
18/07:00pm 16.0 14.9 5.3 49 5.1 CALM 0 0 0 0 1021.3 1021.2 0.0
18/06:30pm 16.8 15.8 5.4 47 5.5 CALM 0 0 0 0 1021.1 1021.0 0.0
18/06:00pm 17.4 15.0 5.4 45 5.8 WSW 7 9 4 5 1021.0 1020.9 0.0
18/05:30pm 18.7 16.1 5.9 43 6.3 WSW 9 13 5 7 1020.8 1020.7 0.0
18/05:00pm 19.0 15.5 5.5 41 6.6 WSW 13 19 7 10 1020.8 1020.7 0.0
18/04:30pm 19.3 16.6 5.7 41 6.7 WSW 9 17 5 9 1021.1 1021.0 0.0
18/04:00pm 19.3 14.9 6.4 43 6.4 WSW 19 26 10 14 1021.1 1021.0 0.0
18/03:30pm 19.5 15.8 6.3 42 6.6 WSW 15 22 8 12 1021.2 1021.1 0.0
18/03:00pm 19.2 14.6 5.6 41 6.7 W 19 26 10 14 1021.1 1021.0 0.0
18/02:30pm 19.4 16.1 6.2 42 6.6 W 13 24 7 13 1021.3 1021.2 0.0
18/02:00pm 19.1 14.6 5.9 42 6.5 WNW 19 28 10 15 1021.6 1021.5 0.0
18/01:30pm 19.2 15.9 6.3 43 6.5 SW 13 24 7 13 1021.9 1021.8 0.0
18/01:00pm 18.3 14.3 6.5 46 5.9 WSW 17 26 9 14 1022.5 1022.4 0.0

Other formats

Comma delimited format used in spreadsheet applications
http://www.bom.gov.au/fwo/IDV60801/IDV60801.94920.axf

JavaScript Object Notation format (JSON) in row-major order
http://www.bom.gov.au/fwo/IDV60801/IDV60801.94920.json

Data quality

Most of these data are generated automatically and are frequently updated. Quality checks on data are not normally performed. It is possible for incorrect values to appear. Refer to information at About Latest Weather Observations and please check the disclaimer before using these data.